Time;durP1;ratioP1;P1;durP2;ratioP2;P2;SDS_P1;SDS_P2;PMS_P1;PMS_P2;Temp;Humidity;BMP_temperature;BMP_pressure;BME280_temperature;BME280_humidity;BME280_pressure;Samples;Min_cycle;Max_cycle;Signal;HPM_P1;HPM_P2
2022/06/15 00:00:41;;;;;;;7.70;7.03;;;15.20;99.90;;;;;;4899389;29;20204;-81
2022/06/15 00:03:09;;;;;;;7.30;6.70;;;15.20;99.90;;;;;;4916462;29;20200;-81
2022/06/15 00:05:37;;;;;;;8.37;7.57;;;15.20;99.90;;;;;;4897555;29;20603;-81
2022/06/15 00:08:05;;;;;;;7.30;6.70;;;15.10;99.90;;;;;;4897884;29;20261;-81
2022/06/15 00:10:32;;;;;;;7.80;7.13;;;15.00;99.90;;;;;;4899492;29;20674;-81
2022/06/15 00:12:59;;;;;;;7.80;7.20;;;15.00;99.90;;;;;;4922241;29;20203;-81
2022/06/15 00:15:26;;;;;;;7.33;6.73;;;15.00;99.90;;;;;;4900782;29;20240;-79
2022/06/15 00:17:52;;;;;;;8.30;7.50;;;14.90;99.90;;;;;;4889413;29;20288;-81
2022/06/15 00:20:19;;;;;;;7.97;7.17;;;14.90;99.90;;;;;;4899443;29;20210;-81
2022/06/15 00:22:47;;;;;;;8.63;7.20;;;14.80;99.90;;;;;;4915986;29;20220;-81
2022/06/15 00:25:14;;;;;;;8.43;7.63;;;14.80;99.90;;;;;;4898773;29;20279;-80
2022/06/15 00:27:41;;;;;;;9.53;7.43;;;14.80;99.90;;;;;;4903091;29;20213;-81
2022/06/15 00:30:09;;;;;;;8.20;7.40;;;14.70;99.90;;;;;;4896848;29;20200;-82
2022/06/15 00:32:37;;;;;;;6.97;5.90;;;14.70;99.90;;;;;;4891427;29;20209;-81
2022/06/15 00:35:05;;;;;;;6.00;5.40;;;14.60;99.90;;;;;;4907818;29;20709;-79
2022/06/15 00:37:32;;;;;;;5.27;4.77;;;14.60;99.90;;;;;;4899182;29;20670;-81
2022/06/15 00:40:00;;;;;;;5.73;4.80;;;14.50;99.90;;;;;;4899015;29;20259;-81
2022/06/15 00:42:30;;;;;;;6.13;5.13;;;14.60;99.90;;;;;;4893238;29;20231;-81
2022/06/15 00:44:57;;;;;;;7.47;5.57;;;14.50;99.90;;;;;;4898216;29;20236;-81
2022/06/15 00:47:27;;;;;;;5.57;5.07;;;14.40;99.90;;;;;;4915780;29;20199;-81
2022/06/15 00:49:58;;;;;;;6.13;5.53;;;14.30;99.90;;;;;;4894842;29;20210;-81
2022/06/15 00:52:32;;;;;;;6.27;5.63;;;14.40;99.90;;;;;;4898868;29;20206;-81
2022/06/15 00:55:06;;;;;;;6.57;5.93;;;14.40;99.90;;;;;;4896566;29;20228;-81
2022/06/15 00:57:33;;;;;;;7.23;6.33;;;14.30;99.90;;;;;;4887880;29;20222;-81
2022/06/15 01:00:03;;;;;;;6.43;5.83;;;14.30;99.90;;;;;;4895488;29;20208;-81
2022/06/15 01:02:33;;;;;;;6.27;5.70;;;14.40;99.90;;;;;;4893695;29;20227;-81
2022/06/15 01:05:04;;;;;;;6.53;5.83;;;14.30;99.90;;;;;;4898371;29;20225;-81
2022/06/15 01:08:01;;;;;;;6.70;5.33;;;14.40;99.90;;;;;;4915375;29;20207;-81
2022/06/15 01:10:41;;;;;;;8.47;6.20;;;14.30;99.90;;;;;;4905369;29;20272;-79
2022/06/15 01:13:27;;;;;;;7.57;5.80;;;14.20;99.90;;;;;;4898592;29;20563;-81
2022/06/15 01:16:04;;;;;;;7.63;6.37;;;14.20;99.90;;;;;;4890671;29;20243;-81
2022/06/15 01:18:40;;;;;;;7.97;7.20;;;14.20;99.90;;;;;;4912749;29;20199;-81
2022/06/15 01:21:23;;;;;;;7.90;7.20;;;14.10;99.90;;;;;;4896007;29;20204;-80
2022/06/15 01:24:19;;;;;;;8.13;7.33;;;14.00;99.90;;;;;;4914678;29;20211;-81
2022/06/15 01:27:26;;;;;;;7.03;6.37;;;14.00;99.90;;;;;;4887978;29;20201;-80
2022/06/15 01:30:16;;;;;;;6.43;5.83;;;14.00;99.90;;;;;;4905622;29;20204;-80
2022/06/15 01:32:52;;;;;;;7.90;6.33;;;13.90;99.90;;;;;;4915663;29;20196;-81
2022/06/15 01:35:25;;;;;;;6.50;5.77;;;13.90;99.90;;;;;;4887733;29;20247;-81
2022/06/15 01:37:58;;;;;;;6.23;5.63;;;13.90;99.90;;;;;;4897513;29;20547;-81
2022/06/15 01:40:29;;;;;;;6.77;6.07;;;13.90;99.90;;;;;;4896993;29;20215;-80
2022/06/15 01:43:00;;;;;;;6.07;5.57;;;13.90;99.90;;;;;;4912620;29;20271;-80
2022/06/15 01:45:33;;;;;;;5.63;5.13;;;13.90;99.90;;;;;;4900826;29;20254;-81
2022/06/15 01:48:05;;;;;;;5.77;5.13;;;13.90;99.90;;;;;;4895864;29;20352;-80
2022/06/15 01:50:39;;;;;;;5.43;4.93;;;13.80;99.90;;;;;;4897467;29;20205;-81
2022/06/15 01:53:13;;;;;;;6.00;5.40;;;13.90;99.90;;;;;;4893588;29;20192;-80
2022/06/15 01:55:46;;;;;;;5.50;4.83;;;13.80;99.90;;;;;;4889923;29;20254;-80
2022/06/15 01:58:17;;;;;;;5.83;5.23;;;13.80;99.90;;;;;;4890832;29;20236;-82
2022/06/15 02:00:54;;;;;;;5.97;5.30;;;13.80;99.90;;;;;;4898739;29;20207;-81
2022/06/15 02:03:29;;;;;;;5.00;4.37;;;13.70;99.90;;;;;;4910725;29;20223;-81
2022/06/15 02:06:03;;;;;;;5.87;5.00;;;13.70;99.90;;;;;;4896666;29;20706;-81
2022/06/15 02:08:37;;;;;;;5.53;4.93;;;13.70;99.90;;;;;;4906232;29;20207;-80
2022/06/15 02:11:10;;;;;;;7.37;5.50;;;13.60;99.90;;;;;;4910899;29;20579;-82
2022/06/15 02:13:46;;;;;;;6.30;4.87;;;13.60;99.90;;;;;;4898343;29;20195;-81
2022/06/15 02:16:22;;;;;;;5.67;4.90;;;13.60;99.90;;;;;;4892390;29;20241;-80
2022/06/15 02:18:51;;;;;;;5.27;4.67;;;13.60;99.90;;;;;;4900858;29;20203;-80
2022/06/15 02:21:20;;;;;;;7.17;4.50;;;13.60;99.90;;;;;;4899888;29;20235;-81
2022/06/15 02:23:51;;;;;;;5.93;4.97;;;13.60;99.90;;;;;;4899731;29;20231;-81
2022/06/15 02:26:20;;;;;;;5.43;4.30;;;13.60;99.90;;;;;;4900239;29;20204;-81
2022/06/15 02:28:51;;;;;;;6.00;4.47;;;13.50;99.90;;;;;;4901291;29;20475;-80
2022/06/15 02:31:19;;;;;;;6.00;4.63;;;13.50;99.90;;;;;;4897899;29;20218;-81
2022/06/15 02:33:49;;;;;;;4.53;4.13;;;13.40;99.90;;;;;;4914367;29;20195;-81
2022/06/15 02:36:16;;;;;;;6.90;5.30;;;13.40;99.90;;;;;;4901315;29;20731;-80
2022/06/15 02:38:46;;;;;;;5.30;4.80;;;13.30;99.90;;;;;;4901051;29;20259;-80
2022/06/15 02:41:14;;;;;;;5.70;5.20;;;13.20;99.90;;;;;;4918426;29;20646;-80
2022/06/15 02:43:42;;;;;;;5.90;5.40;;;13.20;99.90;;;;;;4893048;29;20227;-82
2022/06/15 02:46:12;;;;;;;6.33;5.73;;;13.20;99.90;;;;;;4893215;29;20196;-83
2022/06/15 02:48:42;;;;;;;10.07;7.10;;;13.20;99.90;;;;;;4893953;29;20285;-82
2022/06/15 02:51:15;;;;;;;7.93;7.33;;;13.20;99.90;;;;;;4893306;29;20208;-79
2022/06/15 02:53:50;;;;;;;5.80;4.80;;;13.20;99.90;;;;;;4901556;29;20200;-80
2022/06/15 02:56:19;;;;;;;6.17;4.90;;;13.10;99.90;;;;;;4894337;29;20199;-80
2022/06/15 02:58:49;;;;;;;8.80;4.50;;;13.00;99.90;;;;;;4903998;29;20223;-79
2022/06/15 03:01:17;;;;;;;8.10;4.03;;;12.90;99.90;;;;;;4897075;29;20206;-79
2022/06/15 03:03:48;;;;;;;6.97;5.00;;;12.80;99.90;;;;;;4905297;29;20654;-78
2022/06/15 03:06:27;;;;;;;6.23;4.50;;;12.80;99.90;;;;;;4893726;29;20212;-78
2022/06/15 03:08:57;;;;;;;8.43;7.53;;;12.80;99.90;;;;;;4902363;29;20715;-78
2022/06/15 03:11:33;;;;;;;9.77;9.03;;;12.70;99.90;;;;;;4903012;29;20210;-80
2022/06/15 03:14:08;;;;;;;9.57;8.87;;;12.70;99.90;;;;;;4897615;29;20226;-79
2022/06/15 03:16:36;;;;;;;9.53;8.83;;;12.60;99.90;;;;;;4919913;29;20207;-79
2022/06/15 03:19:04;;;;;;;9.47;8.67;;;12.60;99.90;;;;;;4894825;29;20214;-78
2022/06/15 03:21:31;;;;;;;9.10;8.40;;;12.60;99.90;;;;;;4909581;29;20301;-78
2022/06/15 03:23:59;;;;;;;9.40;8.60;;;12.60;99.90;;;;;;4901976;29;20239;-78
2022/06/15 03:26:25;;;;;;;9.57;8.73;;;12.60;99.90;;;;;;4905480;29;20209;-77
2022/06/15 03:28:52;;;;;;;9.83;9.00;;;12.60;99.90;;;;;;4901256;29;20211;-77
2022/06/15 03:31:20;;;;;;;9.50;8.70;;;12.60;99.90;;;;;;4902262;29;20200;-78
2022/06/15 03:33:47;;;;;;;9.77;8.83;;;12.60;99.90;;;;;;4902873;29;20287;-78
2022/06/15 03:36:20;;;;;;;9.43;8.63;;;12.60;99.90;;;;;;4914905;29;20210;-77
2022/06/15 03:38:48;;;;;;;8.70;8.00;;;12.60;99.90;;;;;;4904069;29;20207;-77
2022/06/15 03:41:21;;;;;;;9.40;8.60;;;12.70;99.90;;;;;;4903963;29;20207;-78
2022/06/15 03:43:50;;;;;;;9.40;8.50;;;12.70;99.90;;;;;;4902375;29;20610;-80
2022/06/15 03:46:17;;;;;;;9.83;8.83;;;12.70;99.90;;;;;;4895091;29;20259;-79
2022/06/15 03:48:46;;;;;;;9.60;8.80;;;12.70;99.90;;;;;;4900041;29;20234;-79
2022/06/15 03:51:14;;;;;;;9.40;8.60;;;12.70;99.90;;;;;;4896969;29;20266;-78
2022/06/15 03:54:03;;;;;;;9.90;9.13;;;12.70;99.90;;;;;;4912315;29;20643;-79
2022/06/15 03:56:42;;;;;;;9.37;8.67;;;12.80;99.90;;;;;;4896752;29;20199;-79
2022/06/15 03:59:12;;;;;;;10.13;9.30;;;12.80;99.90;;;;;;4899682;29;20590;-78
2022/06/15 04:01:40;;;;;;;10.40;9.60;;;12.80;99.90;;;;;;4893769;29;20603;-78
2022/06/15 04:04:07;;;;;;;6.57;5.93;;;12.90;99.90;;;;;;4899392;29;20221;-79
2022/06/15 04:06:34;;;;;;;7.83;5.00;;;13.00;99.90;;;;;;4894611;29;20298;-79
2022/06/15 04:09:02;;;;;;;7.53;5.60;;;13.00;99.90;;;;;;4897569;29;20199;-79
2022/06/15 04:14:24;;;;;;;9.90;9.10;;;13.10;99.90;;;;;;4899496;29;20221;-79
2022/06/15 04:17:06;;;;;;;9.77;8.97;;;13.20;99.90;;;;;;4898586;29;20711;-79
2022/06/15 04:22:33;;;;;;;10.93;10.23;;;13.30;99.90;;;;;;4897271;29;20219;-79
2022/06/15 04:25:02;;;;;;;6.70;6.00;;;13.50;99.90;;;;;;4899267;29;20224;-79
2022/06/15 04:27:30;;;;;;;8.43;7.83;;;13.60;99.90;;;;;;4899243;29;20232;-79
2022/06/15 04:29:59;;;;;;;9.07;8.30;;;13.70;99.90;;;;;;4899255;29;20196;-79
2022/06/15 04:32:26;;;;;;;7.70;7.10;;;13.90;99.90;;;;;;4899482;29;20625;-78
2022/06/15 04:34:54;;;;;;;6.73;6.20;;;14.00;99.90;;;;;;4898790;29;20230;-78
2022/06/15 04:37:23;;;;;;;6.80;6.20;;;14.20;99.90;;;;;;4896200;29;20201;-79
2022/06/15 04:39:54;;;;;;;6.47;5.87;;;14.40;99.90;;;;;;4889316;29;20207;-79
2022/06/15 04:42:23;;;;;;;7.83;6.13;;;14.60;99.90;;;;;;4901112;29;20520;-78
2022/06/15 04:44:51;;;;;;;7.07;5.20;;;14.90;99.90;;;;;;4898601;29;20700;-79
2022/06/15 04:47:19;;;;;;;4.90;4.50;;;15.10;99.90;;;;;;4899458;29;20211;-79
2022/06/15 04:49:45;;;;;;;5.00;4.50;;;15.30;99.90;;;;;;4895110;29;20582;-80
2022/06/15 04:52:14;;;;;;;4.77;3.87;;;15.70;99.90;;;;;;4896468;29;20674;-80
2022/06/15 04:54:43;;;;;;;5.10;4.33;;;16.10;99.90;;;;;;4891399;29;20225;-80
2022/06/15 04:57:10;;;;;;;5.17;4.57;;;16.30;99.90;;;;;;4907010;29;20659;-80
2022/06/15 04:59:40;;;;;;;8.50;7.80;;;16.60;99.90;;;;;;4898913;29;20203;-80
2022/06/15 05:02:06;;;;;;;7.90;7.20;;;16.80;99.90;;;;;;4895820;29;20670;-80
2022/06/15 05:04:34;;;;;;;9.97;8.93;;;16.80;99.90;;;;;;4898560;29;20282;-80
2022/06/15 05:07:01;;;;;;;7.13;6.53;;;16.90;99.90;;;;;;4896982;29;20198;-80
2022/06/15 05:09:28;;;;;;;7.73;6.27;;;17.00;99.90;;;;;;4900753;29;20241;-79
2022/06/15 05:11:55;;;;;;;7.70;7.00;;;17.10;99.90;;;;;;4904779;29;20287;-79
2022/06/15 05:14:23;;;;;;;8.17;7.40;;;17.10;99.90;;;;;;4895775;29;20708;-79
2022/06/15 05:16:53;;;;;;;7.40;6.70;;;17.30;99.90;;;;;;4901599;29;20211;-80
2022/06/15 05:19:29;;;;;;;7.20;6.60;;;17.50;99.90;;;;;;4901817;29;20677;-80
2022/06/15 05:21:57;;;;;;;8.60;7.70;;;17.70;99.90;;;;;;4901825;29;20259;-79
2022/06/15 05:24:24;;;;;;;8.13;7.53;;;17.70;99.90;;;;;;4916305;29;20231;-79
2022/06/15 05:26:54;;;;;;;7.20;6.60;;;17.60;99.90;;;;;;4900314;29;20206;-80
2022/06/15 05:29:22;;;;;;;6.90;6.30;;;17.60;99.90;;;;;;4902410;29;20225;-79
2022/06/15 05:31:56;;;;;;;7.13;6.43;;;17.50;99.90;;;;;;4907684;29;20211;-79
2022/06/15 05:34:24;;;;;;;8.00;7.40;;;17.60;99.90;;;;;;4899385;29;20601;-80
2022/06/15 05:36:51;;;;;;;7.70;7.07;;;17.80;99.90;;;;;;4906023;29;20209;-79
2022/06/15 05:39:18;;;;;;;6.17;5.57;;;18.20;99.90;;;;;;4905351;29;20202;-80
2022/06/15 05:41:45;;;;;;;5.10;4.60;;;18.80;99.90;;;;;;4905099;29;20239;-80
2022/06/15 05:44:14;;;;;;;5.03;4.63;;;19.70;99.90;;;;;;4904707;29;20336;-77
2022/06/15 05:46:43;;;;;;;5.13;4.63;;;20.60;99.90;;;;;;4905100;29;20227;-79
2022/06/15 05:49:40;;;;;;;6.53;5.60;;;21.20;99.90;;;;;;4903054;29;20716;-79
2022/06/15 05:52:10;;;;;;;6.57;5.30;;;22.00;99.90;;;;;;4904217;29;20223;-80
2022/06/15 05:54:39;;;;;;;9.50;6.20;;;22.60;99.90;;;;;;4904115;29;20215;-80
2022/06/15 05:57:12;;;;;;;6.40;5.90;;;23.10;99.90;;;;;;4904500;29;20208;-79
2022/06/15 05:59:38;;;;;;;6.00;4.23;;;23.60;99.90;;;;;;4899322;29;20677;-79
2022/06/15 06:02:05;;;;;;;7.07;5.53;;;24.00;99.90;;;;;;4896024;29;20199;-81
2022/06/15 06:04:32;;;;;;;4.83;3.23;;;24.40;99.90;;;;;;4923263;29;20238;-80
2022/06/15 06:07:00;;;;;;;8.60;6.20;;;24.70;99.90;;;;;;4895964;29;20197;-80
2022/06/15 06:09:28;;;;;;;4.50;3.27;;;24.80;99.90;;;;;;4904001;29;20586;-80
2022/06/15 06:11:55;;;;;;;6.47;4.77;;;25.10;99.90;;;;;;4918849;29;20233;-79
2022/06/15 06:14:22;;;;;;;7.27;5.53;;;25.30;99.90;;;;;;4919633;29;20236;-80
2022/06/15 06:16:48;;;;;;;4.07;3.07;;;25.50;99.90;;;;;;4920928;29;20235;-79
2022/06/15 06:19:15;;;;;;;7.43;4.47;;;25.70;99.90;;;;;;4918284;29;20212;-80
2022/06/15 06:21:43;;;;;;;6.00;3.60;;;25.60;99.90;;;;;;4896233;29;20257;-79
2022/06/15 06:24:11;;;;;;;4.67;3.30;;;25.80;99.90;;;;;;4914021;29;20232;-78
2022/06/15 06:26:39;;;;;;;6.03;3.70;;;25.80;99.90;;;;;;4922333;29;20396;-79
2022/06/15 06:29:07;;;;;;;6.33;5.80;;;26.00;99.90;;;;;;4902309;29;20200;-79
2022/06/15 06:31:34;;;;;;;7.40;4.73;;;26.00;99.90;;;;;;4922262;29;20238;-79
2022/06/15 06:34:01;;;;;;;5.87;3.73;;;26.10;99.90;;;;;;4920254;29;20220;-79
2022/06/15 06:36:32;;;;;;;5.20;3.67;;;26.30;99.90;;;;;;4921446;29;20551;-79
2022/06/15 06:39:00;;;;;;;7.70;3.50;;;26.40;99.90;;;;;;4918088;29;20204;-79
2022/06/15 06:41:30;;;;;;;4.77;3.70;;;26.70;99.90;;;;;;4907098;29;20242;-79
2022/06/15 06:43:59;;;;;;;5.93;3.70;;;26.70;99.90;;;;;;4895466;29;20208;-79
2022/06/15 06:46:27;;;;;;;4.57;3.83;;;26.70;99.90;;;;;;4904068;29;20210;-79
2022/06/15 06:48:53;;;;;;;6.43;5.83;;;26.70;99.90;;;;;;4903725;29;20204;-78
2022/06/15 06:51:20;;;;;;;5.67;4.43;;;26.90;99.90;;;;;;4917781;29;20679;-80
2022/06/15 06:53:47;;;;;;;4.83;3.53;;;26.80;99.90;;;;;;4920301;29;20207;-79
2022/06/15 06:56:14;;;;;;;5.80;3.60;;;26.90;99.90;;;;;;4919278;29;20594;-79
2022/06/15 06:58:43;;;;;;;5.57;5.17;;;27.30;99.90;;;;;;4920341;29;20214;-79
2022/06/15 07:01:09;;;;;;;7.90;3.90;;;27.40;99.90;;;;;;4903424;29;20200;-79
2022/06/15 07:03:36;;;;;;;4.77;3.70;;;27.70;99.90;;;;;;4906800;29;20220;-79
2022/06/15 07:06:05;;;;;;;5.23;4.17;;;27.60;99.90;;;;;;4919900;29;20200;-79
2022/06/15 07:08:32;;;;;;;5.73;4.50;;;27.60;99.90;;;;;;4903053;29;20211;-79
2022/06/15 07:11:00;;;;;;;5.10;3.50;;;27.60;99.90;;;;;;4919581;29;20208;-79
2022/06/15 07:13:26;;;;;;;5.50;3.93;;;27.70;99.90;;;;;;4919730;29;20203;-78
2022/06/15 07:15:55;;;;;;;6.53;3.73;;;27.80;99.60;;;;;;4918816;29;20346;-79
2022/06/15 07:18:21;;;;;;;5.50;3.83;;;27.70;99.80;;;;;;4905580;29;20208;-79
2022/06/15 07:20:49;;;;;;;4.83;3.77;;;27.90;99.90;;;;;;4902294;29;20197;-79
2022/06/15 07:23:15;;;;;;;5.47;3.60;;;28.20;99.00;;;;;;4911471;29;20207;-78
2022/06/15 07:25:42;;;;;;;4.17;3.33;;;28.00;99.70;;;;;;4919456;29;20693;-80
2022/06/15 07:28:09;;;;;;;6.17;4.10;;;28.30;99.20;;;;;;4899978;29;20201;-78
2022/06/15 07:30:37;;;;;;;4.10;3.20;;;28.60;98.40;;;;;;4908731;29;20207;-79
2022/06/15 07:33:06;;;;;;;4.90;4.40;;;28.40;97.60;;;;;;4918742;29;20200;-78
2022/06/15 07:35:33;;;;;;;4.47;3.40;;;28.60;96.10;;;;;;4904582;29;20228;-79
2022/06/15 07:38:01;;;;;;;6.70;4.17;;;28.60;96.20;;;;;;4912722;29;20282;-80
2022/06/15 07:40:28;;;;;;;5.40;4.80;;;28.60;95.50;;;;;;4898584;29;20264;-79
2022/06/15 07:42:56;;;;;;;4.23;3.43;;;28.90;96.10;;;;;;4902385;29;20201;-79
2022/06/15 07:45:24;;;;;;;4.57;4.27;;;28.90;96.30;;;;;;4911185;29;20448;-78
2022/06/15 07:50:38;;;;;;;8.10;6.30;;;29.00;95.20;;;;;;4902273;29;20196;-80
2022/06/15 07:53:07;;;;;;;6.37;5.77;;;28.70;96.70;;;;;;4916527;29;20200;-80
2022/06/15 07:55:40;;;;;;;4.70;4.20;;;28.70;96.30;;;;;;4894676;29;20291;-79
2022/06/15 07:58:07;;;;;;;6.20;5.60;;;28.90;97.20;;;;;;4897434;29;20598;-78
2022/06/15 08:00:36;;;;;;;6.53;5.80;;;29.00;97.40;;;;;;4898963;29;20238;-78
2022/06/15 08:03:04;;;;;;;6.63;6.03;;;29.00;96.00;;;;;;4917564;29;20605;-79
2022/06/15 08:05:35;;;;;;;6.90;6.20;;;29.00;96.10;;;;;;4901885;29;20228;-79
2022/06/15 08:08:04;;;;;;;6.30;5.70;;;29.10;95.40;;;;;;4901022;29;20468;-79
2022/06/15 08:10:33;;;;;;;7.27;5.87;;;29.20;96.70;;;;;;4914035;29;20203;-80
2022/06/15 08:13:01;;;;;;;5.93;5.50;;;29.40;96.60;;;;;;4919364;29;20196;-79
2022/06/15 08:15:28;;;;;;;6.50;5.90;;;29.50;96.40;;;;;;4898496;29;20235;-79
2022/06/15 08:17:59;;;;;;;6.30;5.70;;;29.80;96.30;;;;;;4917664;29;20212;-79
2022/06/15 08:20:31;;;;;;;6.23;5.73;;;29.80;96.10;;;;;;4898844;29;20224;-80
2022/06/15 08:23:02;;;;;;;6.87;6.27;;;29.90;96.60;;;;;;4913850;29;20199;-80
2022/06/15 08:25:36;;;;;;;6.30;5.70;;;30.10;95.70;;;;;;4916353;29;20653;-80
2022/06/15 08:28:05;;;;;;;7.20;6.50;;;30.10;95.00;;;;;;4917435;29;20267;-79
2022/06/15 08:30:34;;;;;;;8.47;6.50;;;29.80;96.10;;;;;;4918587;29;20239;-79
2022/06/15 08:33:01;;;;;;;6.70;6.00;;;29.60;95.20;;;;;;4899280;29;20208;-79
2022/06/15 08:35:28;;;;;;;6.83;6.23;;;29.80;96.00;;;;;;4899517;29;20230;-79
2022/06/15 08:37:55;;;;;;;6.57;5.97;;;29.90;95.80;;;;;;4910150;29;20200;-79
2022/06/15 08:40:22;;;;;;;6.60;6.00;;;30.20;95.50;;;;;;4918279;29;20200;-80
2022/06/15 08:42:56;;;;;;;6.53;5.93;;;30.40;96.90;;;;;;4917781;29;20650;-79
2022/06/15 08:45:32;;;;;;;6.53;6.03;;;30.70;95.00;;;;;;4916506;29;20258;-79
2022/06/15 08:48:18;;;;;;;7.07;6.47;;;30.60;94.80;;;;;;4915388;29;20573;-79
2022/06/15 08:50:52;;;;;;;6.97;6.37;;;30.30;94.60;;;;;;4898666;29;20212;-80
2022/06/15 08:53:24;;;;;;;6.93;6.20;;;30.20;95.00;;;;;;4917683;29;20200;-79
2022/06/15 08:55:58;;;;;;;6.83;6.27;;;30.60;94.40;;;;;;4903179;29;20219;-79
2022/06/15 08:58:34;;;;;;;7.43;6.73;;;30.70;95.00;;;;;;4912061;29;20226;-79
2022/06/15 09:01:07;;;;;;;6.97;6.37;;;30.90;93.20;;;;;;4917104;29;20206;-79
2022/06/15 09:03:41;;;;;;;6.17;5.67;;;30.50;94.10;;;;;;4917272;29;20249;-79
2022/06/15 09:06:21;;;;;;;7.23;5.80;;;30.60;94.70;;;;;;4915450;29;20267;-78
2022/06/15 09:09:06;;;;;;;7.00;6.40;;;30.50;94.30;;;;;;4900454;29;20203;-79
2022/06/15 09:11:48;;;;;;;6.43;5.93;;;30.80;94.20;;;;;;4893467;29;20203;-79
2022/06/15 09:14:34;;;;;;;6.43;6.00;;;31.40;94.10;;;;;;4890426;29;20663;-79
2022/06/15 09:17:08;;;;;;;9.37;6.90;;;31.60;93.10;;;;;;4907982;29;20681;-80
2022/06/15 09:19:39;;;;;;;5.97;5.53;;;31.90;92.50;;;;;;4907789;29;20639;-79
2022/06/15 09:22:09;;;;;;;6.30;5.90;;;32.10;91.80;;;;;;4918302;29;20200;-79
2022/06/15 09:24:48;;;;;;;7.00;6.30;;;32.10;91.40;;;;;;4917842;29;20233;-79
2022/06/15 09:27:21;;;;;;;6.90;6.20;;;31.80;90.90;;;;;;4914930;29;20298;-78
2022/06/15 09:29:55;;;;;;;7.10;6.43;;;31.90;91.80;;;;;;4907528;29;20665;-79
2022/06/15 09:32:26;;;;;;;9.60;6.20;;;32.10;90.40;;;;;;4915466;29;20203;-81
2022/06/15 09:34:59;;;;;;;6.60;6.03;;;31.90;91.60;;;;;;4903722;29;20735;-80
2022/06/15 09:37:30;;;;;;;7.20;6.47;;;32.10;90.80;;;;;;4921204;29;20676;-79
2022/06/15 09:39:57;;;;;;;6.53;6.00;;;32.30;91.40;;;;;;4920804;29;20211;-79
2022/06/15 09:42:33;;;;;;;7.20;6.10;;;32.30;90.80;;;;;;4917790;29;20603;-80
2022/06/15 09:45:07;;;;;;;6.60;6.00;;;32.10;90.30;;;;;;4918172;29;20219;-79
2022/06/15 09:47:48;;;;;;;6.72;6.05;;;31.90;90.40;;;;;;4919715;29;20203;-79
2022/06/15 09:50:26;;;;;;;6.53;6.03;;;31.80;91.30;;;;;;4908049;29;20200;-79
2022/06/15 09:53:07;;;;;;;6.53;6.03;;;31.80;91.30;;;;;;4912136;29;20196;-79
2022/06/15 09:55:38;;;;;;;6.50;5.90;;;32.20;91.00;;;;;;4912397;29;20220;-79
2022/06/15 09:58:08;;;;;;;7.18;6.22;;;32.30;90.00;;;;;;4901639;29;20649;-79
2022/06/15 10:00:38;;;;;;;5.83;5.30;;;31.90;89.00;;;;;;4903831;29;20259;-80
2022/06/15 10:03:13;;;;;;;6.10;5.50;;;32.00;91.00;;;;;;4904014;29;20673;-80
2022/06/15 10:05:41;;;;;;;7.33;5.50;;;32.10;89.10;;;;;;4899168;29;20780;-80
2022/06/15 10:08:13;;;;;;;5.37;4.90;;;31.80;90.00;;;;;;4919403;29;20204;-79
2022/06/15 10:10:44;;;;;;;6.17;5.57;;;31.60;90.80;;;;;;4916533;29;20741;-80
2022/06/15 10:13:30;;;;;;;6.00;5.50;;;31.70;90.40;;;;;;4890907;29;20196;-79
2022/06/15 10:16:00;;;;;;;5.73;5.30;;;31.70;90.40;;;;;;4918469;29;20784;-79
2022/06/15 10:18:37;;;;;;;5.30;4.90;;;31.80;90.00;;;;;;4910608;29;20204;-79
2022/06/15 10:21:09;;;;;;;6.13;5.50;;;31.90;88.50;;;;;;4919671;29;20291;-79
2022/06/15 10:23:49;;;;;;;5.73;5.20;;;31.90;90.10;;;;;;4906088;29;20212;-79
2022/06/15 10:26:26;;;;;;;5.73;5.10;;;32.00;90.20;;;;;;4914378;29;20327;-80
2022/06/15 10:28:54;;;;;;;5.30;4.83;;;32.10;89.60;;;;;;4903979;29;20211;-80
2022/06/15 10:31:28;;;;;;;5.47;5.07;;;32.00;88.80;;;;;;4922564;29;20208;-80
2022/06/15 10:33:57;;;;;;;5.97;5.20;;;32.00;89.70;;;;;;4905838;29;20203;-80
2022/06/15 10:36:31;;;;;;;5.43;4.80;;;31.90;86.40;;;;;;4922349;29;20223;-80
2022/06/15 10:39:04;;;;;;;5.10;4.70;;;31.70;89.00;;;;;;4913160;29;20235;-79
2022/06/15 10:41:46;;;;;;;5.60;5.10;;;31.60;85.50;;;;;;4904051;29;20201;-80
2022/06/15 10:44:15;;;;;;;6.93;6.30;;;31.40;88.60;;;;;;4889415;29;20302;-80
2022/06/15 10:46:59;;;;;;;5.53;5.13;;;30.90;83.50;;;;;;4917440;29;20263;-80
2022/06/15 10:49:29;;;;;;;6.27;5.70;;;30.60;86.00;;;;;;4898284;29;20555;-80
2022/06/15 10:51:56;;;;;;;5.57;5.10;;;30.40;85.20;;;;;;4921258;29;20208;-80
2022/06/15 11:02:06;;;;;;;5.30;4.87;;;30.50;86.20;;;;;;4904645;29;20280;-80
2022/06/15 11:03:12;;;;;;;5.33;4.83;;;30.80;87.10;;;;;;4918251;29;20180;-80
2022/06/15 11:05:39;;;;;;;4.50;3.80;;;30.80;88.50;;;;;;4902196;29;20271;-80
2022/06/15 11:08:14;;;;;;;4.00;3.63;;;30.90;88.10;;;;;;4904597;29;20752;-80
2022/06/15 11:10:44;;;;;;;3.37;2.70;;;30.70;85.30;;;;;;4903783;29;20212;-80
2022/06/15 11:13:29;;;;;;;3.57;3.07;;;30.60;87.60;;;;;;4894225;29;20209;-80
2022/06/15 11:18:59;;;;;;;3.37;2.90;;;30.60;88.30;;;;;;4922689;29;20191;-81
2022/06/15 11:21:29;;;;;;;4.00;2.83;;;30.70;87.10;;;;;;4904396;29;20204;-80
2022/06/15 11:24:02;;;;;;;6.67;6.20;;;30.60;85.80;;;;;;4919674;29;20589;-80
2022/06/15 11:29:39;;;;;;;2.60;2.40;;;29.80;79.70;;;;;;4921960;29;20670;-80
2022/06/15 11:32:14;;;;;;;5.63;4.17;;;29.70;83.40;;;;;;4902556;29;20212;-79
2022/06/15 11:34:49;;;;;;;3.23;2.50;;;29.60;83.10;;;;;;4893894;29;20248;-80
2022/06/15 11:37:20;;;;;;;4.90;4.50;;;29.60;83.90;;;;;;4902347;29;20599;-81
2022/06/15 11:39:55;;;;;;;6.20;5.70;;;29.30;81.30;;;;;;4905003;29;20212;-80
2022/06/15 11:42:23;;;;;;;4.10;3.33;;;29.30;85.70;;;;;;4903725;29;20227;-80
2022/06/15 11:44:51;;;;;;;5.40;5.07;;;29.30;85.50;;;;;;4901345;29;20777;-80
2022/06/15 11:47:28;;;;;;;6.40;5.37;;;29.30;84.70;;;;;;4905103;29;20211;-81
2022/06/15 11:50:02;;;;;;;6.20;5.80;;;29.20;81.10;;;;;;4897364;29;20204;-80
2022/06/15 11:52:50;;;;;;;5.67;5.27;;;29.00;83.20;;;;;;4924075;29;20195;-80
2022/06/15 11:55:28;;;;;;;5.30;4.10;;;28.90;82.40;;;;;;4897452;29;20228;-80
2022/06/15 11:58:20;;;;;;;2.77;2.40;;;28.80;82.30;;;;;;4921732;29;20216;-81
2022/06/15 12:00:54;;;;;;;2.33;2.23;;;29.10;83.70;;;;;;4902753;29;20278;-80
2022/06/15 12:03:46;;;;;;;3.17;2.40;;;29.30;75.60;;;;;;4904528;29;20443;-80
2022/06/15 12:06:23;;;;;;;2.40;1.90;;;29.40;77.10;;;;;;4897202;29;20219;-81
2022/06/15 12:09:02;;;;;;;3.90;2.20;;;29.50;78.90;;;;;;4912540;29;20234;-79
2022/06/15 12:14:34;;;;;;;2.50;2.30;;;29.30;77.10;;;;;;4889724;29;20259;-78
2022/06/15 12:17:09;;;;;;;2.73;2.47;;;29.20;80.30;;;;;;4902145;29;20584;-80
2022/06/15 12:19:43;;;;;;;2.53;2.33;;;29.20;79.70;;;;;;4904754;29;20211;-80
2022/06/15 12:22:17;;;;;;;5.00;4.60;;;29.20;81.50;;;;;;4898560;29;20205;-80
2022/06/15 12:24:53;;;;;;;3.93;3.63;;;29.00;77.30;;;;;;4899793;29;20273;-80
2022/06/15 12:27:37;;;;;;;2.37;2.17;;;28.90;81.40;;;;;;4883702;29;20211;-79
2022/06/15 12:30:26;;;;;;;2.60;2.40;;;29.10;83.10;;;;;;4884309;29;20204;-81
2022/06/15 12:33:06;;;;;;;2.33;2.17;;;29.10;82.80;;;;;;4885665;29;20206;-80
2022/06/15 12:35:40;;;;;;;2.60;2.30;;;29.20;82.00;;;;;;4902883;29;20217;-79
2022/06/15 12:38:17;;;;;;;2.80;2.40;;;29.10;81.40;;;;;;4901554;29;20208;-80
2022/06/15 12:40:48;;;;;;;2.57;2.37;;;29.00;80.70;;;;;;4892030;29;20214;-80
2022/06/15 12:43:27;;;;;;;2.40;2.20;;;28.90;80.70;;;;;;4906628;29;20280;-80
2022/06/15 12:46:03;;;;;;;2.63;2.43;;;29.00;81.90;;;;;;4894438;29;20260;-80
2022/06/15 12:48:37;;;;;;;3.63;2.97;;;28.90;83.50;;;;;;4900730;29;20572;-82
2022/06/15 12:51:11;;;;;;;5.67;5.27;;;28.70;81.40;;;;;;4901777;29;20203;-82
2022/06/15 12:53:52;;;;;;;5.60;5.20;;;28.70;84.70;;;;;;4894868;29;20297;-82
2022/06/15 12:56:30;;;;;;;6.47;5.80;;;28.60;82.30;;;;;;4909582;29;20220;-81
2022/06/15 12:59:08;;;;;;;6.33;5.50;;;28.60;82.10;;;;;;4915585;29;20239;-81
2022/06/15 13:01:41;;;;;;;6.10;5.70;;;28.70;83.50;;;;;;4897193;29;20208;-80
2022/06/15 13:04:19;;;;;;;7.07;5.77;;;28.70;83.70;;;;;;4908979;29;20224;-79
2022/06/15 13:06:46;;;;;;;4.17;3.33;;;28.60;84.40;;;;;;4903946;29;20398;-80
2022/06/15 13:09:23;;;;;;;3.07;2.67;;;28.60;83.90;;;;;;4896677;29;20264;-79
2022/06/15 13:12:00;;;;;;;5.07;2.57;;;28.60;84.20;;;;;;4899535;29;20203;-78
2022/06/15 13:14:31;;;;;;;4.50;4.20;;;28.60;83.00;;;;;;4903391;29;20231;-80
2022/06/15 13:17:07;;;;;;;6.30;5.80;;;28.60;83.60;;;;;;4903701;29;20242;-82
2022/06/15 13:19:39;;;;;;;5.77;5.37;;;28.60;84.70;;;;;;4918609;29;20199;-80
2022/06/15 13:22:10;;;;;;;5.77;5.43;;;28.60;81.90;;;;;;4899728;29;20218;-81
2022/06/15 13:25:08;;;;;;;6.30;5.70;;;28.70;84.30;;;;;;4895103;29;20607;-80
2022/06/15 13:27:38;;;;;;;5.67;5.23;;;28.80;84.80;;;;;;4896248;29;20205;-80
2022/06/15 13:30:21;;;;;;;5.97;5.47;;;28.90;84.30;;;;;;4896823;29;20217;-80
2022/06/15 13:33:00;;;;;;;6.63;5.83;;;28.90;84.40;;;;;;4909820;29;20716;-81